Strona główna
METAR-TAF:

METAR-TAF

Lotnisko :

Rugby, Dakota Północna, Stany Zjednoczone

Szerokość geograficzna: 48-23-25N, Długość geograficzna: 100-01-27W, wysokość: 472 m

Aktualna obserwacja pogody

Raport powstał 28 minut temu, godzina 06:15 UTC
Wiatr 5 kt od południowy wschód
Temperatura -10°C
Wilgotność 100%
Ciśnienie 1017 hPa
Widzialność: 8.0 km
zamglenie

METAR: KRUG 280615Z AUTO 13005KT 5SM BR M10/M10 A3002 RMK AO2

czas: 00:43 (06:43 UTC)


TAF: brakujący

Obserwacja i prognoza pogody dla ponad 4000 lotnisk (raport METAR i TAF).

Dostępne stacje oznaczono żółtymi i czerwonymi punktami na mapie.

Najedź kursorem aby zobaczyć nazwę stacji.

Kliknij aby zobaczyć obserwacje i prognozy pogody.

Aby zmienić mapę: kliknij na zielony przycisk z czarnym krzyżykiem, aby powiększyć; na zielony przycisk z myślnikiem, aby pomniejszyć; na zielone strzałki, aby przejść do map sąsiednich.


METAR-TAF: